Terminal Aerodrome Forecast
Issued by NWS

Home | Current Version | Previous Version | Text Only | Print | Product List | Glossary On
Versions: 1 2 3 4 5 6 7 8 9 10 11 12 13 14 15 16 17 18 19
000
FTUS44 KEPZ 210536
TAFTCS
TAF
KTCS 210536Z 2106/2206 19015G25KT 6SM -SHRA SCT040 BKN100 OVC180
     FM211500 25024G36KT P6SM -SHRA BKN050
     FM212100 27028G38KT P6SM BKN080
     FM220100 28026G35KT P6SM SCT060=

USA.gov is the U.S. government's official web portal to all federal, state and local government web resources and services.